Time;durP1;ratioP1;P1;durP2;ratioP2;P2;SDS_P1;SDS_P2;PMS_P1;PMS_P2;Temp;Humidity;BMP_temperature;BMP_pressure;BME280_temperature;BME280_humidity;BME280_pressure;Samples;Min_cycle;Max_cycle;Signal;HPM_P1;HPM_P2
2024/01/05 00:00:32;;;;;;;16.02;11.02;;;1.70;89.60;;;;;;5008661;28;20334;-47
2024/01/05 00:03:00;;;;;;;18.10;11.38;;;1.70;89.40;;;;;;5009722;28;20034;-47
2024/01/05 00:05:26;;;;;;;17.42;11.68;;;1.60;89.60;;;;;;5010155;28;20030;-46
2024/01/05 00:07:52;;;;;;;16.70;11.05;;;1.70;89.80;;;;;;5003695;28;20072;-47
2024/01/05 00:10:19;;;;;;;18.35;10.68;;;1.70;89.50;;;;;;5004463;28;20030;-48
2024/01/05 00:12:46;;;;;;;19.45;11.65;;;1.60;89.60;;;;;;5006720;28;20195;-46
2024/01/05 00:15:13;;;;;;;19.30;12.82;;;1.70;89.90;;;;;;4990809;28;20073;-47
2024/01/05 00:17:42;;;;;;;18.52;10.88;;;1.70;89.60;;;;;;4990796;28;20536;-47
2024/01/05 00:20:10;;;;;;;17.05;11.05;;;1.60;89.50;;;;;;4990927;28;20812;-47
2024/01/05 00:22:37;;;;;;;20.77;12.15;;;1.60;89.60;;;;;;5000272;28;20499;-47
2024/01/05 00:25:04;;;;;;;22.70;12.65;;;1.60;89.70;;;;;;4990432;28;20034;-45
2024/01/05 00:27:31;;;;;;;18.83;12.45;;;1.60;89.80;;;;;;4990660;28;20452;-46
2024/01/05 00:29:58;;;;;;;19.58;13.32;;;1.60;89.70;;;;;;4990527;28;20105;-47
2024/01/05 00:32:25;;;;;;;15.27;10.40;;;1.60;89.80;;;;;;4990463;28;20382;-46
2024/01/05 00:34:52;;;;;;;18.55;11.27;;;1.60;89.90;;;;;;5000796;28;20033;-46
2024/01/05 00:37:22;;;;;;;21.23;13.32;;;1.60;89.80;;;;;;5008653;28;20101;-46
2024/01/05 00:39:48;;;;;;;18.27;13.25;;;1.70;90.00;;;;;;5108496;28;20035;-46
2024/01/05 00:42:14;;;;;;;20.70;12.48;;;1.70;90.00;;;;;;5104501;28;20039;-47
2024/01/05 00:44:40;;;;;;;22.30;12.52;;;1.60;89.80;;;;;;4997580;28;20116;-49
2024/01/05 00:47:08;;;;;;;18.20;12.82;;;1.60;89.60;;;;;;5009665;28;20331;-47
2024/01/05 00:49:35;;;;;;;19.02;12.20;;;1.60;89.90;;;;;;5010096;28;20101;-46
2024/01/05 00:52:01;;;;;;;18.95;11.23;;;1.60;89.90;;;;;;4991083;28;20359;-46
2024/01/05 00:54:28;;;;;;;21.02;12.45;;;1.60;89.90;;;;;;4989777;28;20087;-47
2024/01/05 00:56:55;;;;;;;18.35;12.60;;;1.70;89.90;;;;;;4989771;28;20065;-47
2024/01/05 00:59:21;;;;;;;20.50;12.52;;;1.60;89.80;;;;;;4989683;28;20405;-46
2024/01/05 01:01:47;;;;;;;17.95;11.13;;;1.50;89.80;;;;;;5002522;28;20032;-48
2024/01/05 01:04:14;;;;;;;20.98;11.90;;;1.60;90.20;;;;;;5008625;28;20026;-47
2024/01/05 01:06:40;;;;;;;18.10;13.18;;;1.50;89.90;;;;;;5009576;28;20026;-47
2024/01/05 01:09:07;;;;;;;16.75;12.15;;;1.60;90.10;;;;;;4995419;28;20459;-49
2024/01/05 01:11:34;;;;;;;19.90;12.60;;;1.70;90.20;;;;;;4989748;28;20455;-47
2024/01/05 01:14:00;;;;;;;20.70;12.27;;;1.70;90.00;;;;;;4989355;28;20026;-46
2024/01/05 01:16:27;;;;;;;20.58;12.20;;;1.70;89.90;;;;;;4989344;28;20034;-46
2024/01/05 01:18:55;;;;;;;17.42;10.55;;;1.70;90.00;;;;;;5005308;28;20475;-49
2024/01/05 01:21:22;;;;;;;19.80;11.40;;;1.70;89.90;;;;;;5008453;28;20447;-46
2024/01/05 01:23:49;;;;;;;16.35;10.75;;;1.80;89.70;;;;;;4992675;28;20034;-47
2024/01/05 01:26:16;;;;;;;16.05;10.60;;;1.70;89.60;;;;;;4989756;28;20102;-49
2024/01/05 01:28:43;;;;;;;20.15;12.27;;;1.70;89.70;;;;;;4993546;28;20033;-47
2024/01/05 01:31:10;;;;;;;18.83;12.30;;;1.70;89.60;;;;;;5003798;28;20026;-47
2024/01/05 01:33:36;;;;;;;18.42;11.23;;;1.70;89.80;;;;;;4989746;28;20030;-48
2024/01/05 01:36:03;;;;;;;16.55;11.85;;;1.80;89.50;;;;;;4989580;28;20073;-46
2024/01/05 01:38:30;;;;;;;16.65;10.38;;;1.70;89.40;;;;;;5041432;28;20529;-49
2024/01/05 01:40:56;;;;;;;18.58;10.63;;;1.70;89.60;;;;;;5079625;28;20030;-49
2024/01/05 01:43:27;;;;;;;17.75;11.43;;;1.80;89.80;;;;;;5009078;28;20041;-47
2024/01/05 01:45:58;;;;;;;17.67;10.80;;;1.70;89.50;;;;;;5007910;28;20486;-47
2024/01/05 01:48:27;;;;;;;22.38;12.82;;;1.70;89.70;;;;;;5010075;28;20436;-47
2024/01/05 01:50:55;;;;;;;16.98;10.18;;;1.80;89.90;;;;;;4998764;28;20030;-48
2024/01/05 01:53:23;;;;;;;16.67;10.77;;;1.70;89.70;;;;;;5011813;28;20034;-48
2024/01/05 01:55:52;;;;;;;14.65;9.25;;;1.70;89.60;;;;;;5012336;28;20184;-47
2024/01/05 01:58:21;;;;;;;15.57;10.25;;;1.70;89.70;;;;;;5012339;28;20035;-49
2024/01/05 02:00:49;;;;;;;15.65;9.85;;;1.70;89.70;;;;;;5011801;28;20079;-48
2024/01/05 02:03:17;;;;;;;16.15;10.68;;;1.80;89.80;;;;;;5009940;28;20026;-46
2024/01/05 02:05:47;;;;;;;15.95;9.82;;;1.70;89.60;;;;;;5012115;28;20178;-47
2024/01/05 02:08:15;;;;;;;16.45;10.68;;;1.70;89.80;;;;;;5010091;28;20061;-46
2024/01/05 02:10:42;;;;;;;16.38;9.48;;;1.80;89.80;;;;;;5010953;28;20359;-48
2024/01/05 02:13:08;;;;;;;19.27;10.70;;;1.80;89.80;;;;;;5004416;28;20022;-48
2024/01/05 02:15:35;;;;;;;14.48;10.43;;;1.70;89.60;;;;;;5016146;28;20022;-46
2024/01/05 02:18:22;;;;;;;17.88;10.60;;;1.70;89.80;;;;;;5014167;28;20026;-46
2024/01/05 02:20:49;;;;;;;13.30;8.43;;;1.70;90.00;;;;;;5005888;28;20066;-46
2024/01/05 02:23:34;;;;;;;14.80;9.02;;;1.70;90.20;;;;;;5011779;28;20049;-46
2024/01/05 02:26:00;;;;;;;15.82;8.68;;;1.70;90.10;;;;;;4994873;28;20037;-45
2024/01/05 02:28:29;;;;;;;16.88;9.85;;;1.60;90.10;;;;;;5004788;28;20054;-45
2024/01/05 02:30:57;;;;;;;14.30;8.47;;;1.60;90.40;;;;;;4992473;28;20035;-44
2024/01/05 02:33:23;;;;;;;12.40;8.27;;;1.60;90.70;;;;;;4992350;28;20110;-45
2024/01/05 02:35:50;;;;;;;14.63;9.52;;;1.50;90.90;;;;;;4992340;28;20023;-44
2024/01/05 02:38:17;;;;;;;14.88;9.60;;;1.50;91.20;;;;;;5040215;28;20149;-44
2024/01/05 02:40:43;;;;;;;15.52;9.07;;;1.50;91.10;;;;;;5115521;28;20059;-45
2024/01/05 02:43:10;;;;;;;14.73;9.40;;;1.50;91.50;;;;;;5029461;28;20093;-45
2024/01/05 02:45:37;;;;;;;13.80;9.20;;;1.50;91.70;;;;;;4992311;28;20110;-47
2024/01/05 02:48:04;;;;;;;15.00;8.85;;;1.50;91.70;;;;;;4992412;28;20121;-49
2024/01/05 02:50:31;;;;;;;17.17;9.30;;;1.40;91.70;;;;;;5010132;28;20363;-46
2024/01/05 02:52:57;;;;;;;15.25;9.02;;;1.30;92.20;;;;;;5011999;28;20022;-47
2024/01/05 02:55:24;;;;;;;14.63;9.80;;;1.30;92.30;;;;;;5011801;28;20459;-49
2024/01/05 02:57:51;;;;;;;15.63;9.63;;;1.30;92.40;;;;;;5010713;28;20053;-50
2024/01/05 03:00:18;;;;;;;14.88;9.18;;;1.30;92.60;;;;;;5005642;28;20022;-51
2024/01/05 03:02:45;;;;;;;14.32;9.23;;;1.20;92.60;;;;;;4998704;28;20026;-52
2024/01/05 03:05:12;;;;;;;15.70;10.20;;;1.20;92.90;;;;;;4992238;28;20122;-53
2024/01/05 03:07:40;;;;;;;15.13;9.45;;;1.20;93.10;;;;;;4992741;28;20048;-55
2024/01/05 03:10:08;;;;;;;14.27;8.88;;;1.20;93.20;;;;;;4995830;28;20018;-54
2024/01/05 03:12:34;;;;;;;14.52;9.25;;;1.20;93.30;;;;;;4997228;28;20037;-52
2024/01/05 03:15:03;;;;;;;12.88;8.40;;;1.20;93.30;;;;;;4992487;28;20037;-51
2024/01/05 03:17:30;;;;;;;14.02;8.93;;;1.20;93.40;;;;;;5000629;28;20035;-49
2024/01/05 03:19:57;;;;;;;12.13;8.32;;;1.20;93.50;;;;;;5107873;28;20028;-54
2024/01/05 03:22:24;;;;;;;15.23;9.65;;;1.20;93.60;;;;;;4998622;28;20037;-52
2024/01/05 03:24:51;;;;;;;14.32;9.00;;;1.20;93.60;;;;;;5011534;28;20041;-53
2024/01/05 03:27:17;;;;;;;12.98;8.50;;;1.30;93.80;;;;;;4992941;28;20361;-55
2024/01/05 03:29:45;;;;;;;15.80;8.30;;;1.30;93.80;;;;;;4992644;28;20023;-55
2024/01/05 03:32:11;;;;;;;18.27;9.00;;;1.40;94.00;;;;;;5011849;28;20439;-54
2024/01/05 03:34:40;;;;;;;12.98;8.57;;;1.40;93.80;;;;;;4999858;28;20386;-54
2024/01/05 03:37:07;;;;;;;14.20;8.48;;;1.30;93.90;;;;;;5006046;28;20118;-55
2024/01/05 03:39:34;;;;;;;12.75;8.75;;;1.40;94.00;;;;;;5100799;28;20115;-54
2024/01/05 03:42:02;;;;;;;13.20;7.90;;;1.40;94.00;;;;;;5114463;28;20057;-50
2024/01/05 03:44:29;;;;;;;12.07;7.45;;;1.40;94.10;;;;;;5017959;28;20031;-48
2024/01/05 03:46:56;;;;;;;13.10;7.63;;;1.40;94.10;;;;;;4991644;28;20208;-55
2024/01/05 03:49:23;;;;;;;14.15;7.88;;;1.40;94.10;;;;;;4996047;28;20091;-53
2024/01/05 03:51:50;;;;;;;13.73;8.00;;;1.40;94.10;;;;;;4991949;28;20029;-55
2024/01/05 03:54:17;;;;;;;17.60;7.60;;;1.40;94.20;;;;;;4991533;28;20023;-51
2024/01/05 03:56:47;;;;;;;15.02;8.35;;;1.40;94.10;;;;;;4991616;28;20087;-53
2024/01/05 03:59:16;;;;;;;14.13;9.00;;;1.40;94.00;;;;;;4991424;28;20573;-52
2024/01/05 04:01:48;;;;;;;12.68;8.13;;;1.40;94.10;;;;;;4991615;28;20141;-49
2024/01/05 04:04:15;;;;;;;14.30;8.40;;;1.40;94.00;;;;;;5003951;28;20052;-49
2024/01/05 04:06:44;;;;;;;9.68;7.22;;;1.40;94.00;;;;;;5006473;28;20037;-49
2024/01/05 04:09:13;;;;;;;12.48;7.57;;;1.40;94.00;;;;;;4991692;28;20018;-53
2024/01/05 04:11:39;;;;;;;12.00;8.02;;;1.40;94.10;;;;;;4989944;28;20076;-48
2024/01/05 04:14:09;;;;;;;11.90;7.63;;;1.40;93.90;;;;;;4991222;28;20027;-54
2024/01/05 04:16:35;;;;;;;12.63;8.43;;;1.40;94.00;;;;;;5010585;28;20078;-51
2024/01/05 04:19:01;;;;;;;10.50;8.13;;;1.40;94.00;;;;;;5010856;28;20038;-50
2024/01/05 04:21:30;;;;;;;12.70;8.05;;;1.40;93.90;;;;;;5010923;28;20040;-49
2024/01/05 04:23:58;;;;;;;16.10;8.00;;;1.40;93.90;;;;;;5004027;28;20109;-49
2024/01/05 04:26:25;;;;;;;12.75;7.15;;;1.40;93.90;;;;;;4991236;28;20035;-50
2024/01/05 04:28:51;;;;;;;11.43;7.22;;;1.40;93.90;;;;;;4991168;28;20084;-55
2024/01/05 04:31:20;;;;;;;19.73;8.23;;;1.40;93.80;;;;;;4991169;28;20019;-54
2024/01/05 04:33:49;;;;;;;13.07;7.43;;;1.50;93.90;;;;;;4991064;28;20038;-54
2024/01/05 04:36:16;;;;;;;11.32;8.48;;;1.40;93.90;;;;;;4990138;28;20034;-54
2024/01/05 04:38:43;;;;;;;13.48;7.70;;;1.40;93.80;;;;;;5053252;28;20034;-52
2024/01/05 04:41:14;;;;;;;12.43;7.35;;;1.50;94.00;;;;;;5111232;28;20031;-53
2024/01/05 04:43:41;;;;;;;16.25;9.15;;;1.50;93.80;;;;;;4990896;28;20042;-55
2024/01/05 04:46:07;;;;;;;13.65;7.82;;;1.50;93.80;;;;;;4991161;28;20316;-56
2024/01/05 04:48:34;;;;;;;14.60;8.20;;;1.50;93.80;;;;;;4990998;28;20447;-55
2024/01/05 04:51:02;;;;;;;12.43;8.55;;;1.50;93.90;;;;;;4991364;28;20344;-56
2024/01/05 04:53:29;;;;;;;15.15;8.05;;;1.50;93.90;;;;;;5010339;28;20057;-52
2024/01/05 04:55:56;;;;;;;12.27;7.85;;;1.50;93.80;;;;;;5001392;28;20101;-56
2024/01/05 04:58:24;;;;;;;13.38;8.00;;;1.50;93.80;;;;;;4989686;28;20087;-55
2024/01/05 05:00:51;;;;;;;16.00;10.23;;;1.50;93.70;;;;;;4990711;28;20023;-55
2024/01/05 05:03:18;;;;;;;14.17;8.03;;;1.50;93.70;;;;;;4990571;28;20026;-55
2024/01/05 05:05:44;;;;;;;14.18;9.57;;;1.50;93.70;;;;;;4990615;28;20455;-57
2024/01/05 05:08:14;;;;;;;13.38;8.32;;;1.50;93.80;;;;;;4999819;28;20034;-56
2024/01/05 05:10:41;;;;;;;14.18;8.27;;;1.50;93.80;;;;;;5009251;28;20034;-55
2024/01/05 05:13:07;;;;;;;12.70;8.65;;;1.50;93.80;;;;;;4997407;28;20031;-57
2024/01/05 05:15:33;;;;;;;12.30;7.80;;;1.60;94.00;;;;;;4989466;28;20087;-55
2024/01/05 05:18:00;;;;;;;14.45;8.65;;;1.60;93.90;;;;;;4992532;28;20037;-53
2024/01/05 05:20:29;;;;;;;14.52;9.45;;;1.50;93.90;;;;;;5009770;28;20030;-58
2024/01/05 05:22:56;;;;;;;16.48;9.68;;;1.60;93.90;;;;;;5008100;28;20349;-57
2024/01/05 05:25:23;;;;;;;15.60;8.32;;;1.50;93.80;;;;;;4993227;28;20118;-56
2024/01/05 05:27:50;;;;;;;13.93;8.45;;;1.50;93.80;;;;;;4992757;28;20463;-55
2024/01/05 05:30:17;;;;;;;13.88;9.15;;;1.50;93.70;;;;;;5009899;28;20034;-57
2024/01/05 05:32:44;;;;;;;13.95;9.23;;;1.50;93.90;;;;;;5013458;28;20018;-57
2024/01/05 05:35:11;;;;;;;13.98;8.73;;;1.50;93.90;;;;;;5003820;28;20109;-57
2024/01/05 05:37:40;;;;;;;16.05;9.00;;;1.50;93.90;;;;;;5000929;28;20035;-54
2024/01/05 05:40:06;;;;;;;14.13;8.75;;;1.60;93.90;;;;;;5116796;28;20437;-56
2024/01/05 05:42:32;;;;;;;13.00;9.10;;;1.50;93.80;;;;;;5046233;28;20077;-57
2024/01/05 05:44:58;;;;;;;13.43;8.45;;;1.50;93.80;;;;;;5000958;28;20064;-57
2024/01/05 05:47:25;;;;;;;14.68;8.98;;;1.50;93.80;;;;;;4993612;28;20050;-52
2024/01/05 05:49:53;;;;;;;10.90;7.57;;;1.50;93.70;;;;;;5000132;28;20029;-55
2024/01/05 05:52:19;;;;;;;15.73;9.63;;;1.50;93.70;;;;;;5013032;28;20087;-57
2024/01/05 05:54:46;;;;;;;13.23;9.48;;;1.50;93.80;;;;;;4995762;28;20042;-57
2024/01/05 05:57:13;;;;;;;15.35;9.38;;;1.50;93.90;;;;;;4993567;28;20030;-57
2024/01/05 05:59:40;;;;;;;16.15;10.45;;;1.60;93.90;;;;;;5015374;28;20026;-51
2024/01/05 06:02:09;;;;;;;12.93;8.35;;;1.60;93.90;;;;;;5005713;28;20113;-51
2024/01/05 06:04:36;;;;;;;14.20;9.70;;;1.60;93.90;;;;;;5003743;28;20034;-50
2024/01/05 06:07:03;;;;;;;16.80;9.10;;;1.60;94.00;;;;;;5000820;28;20030;-53
2024/01/05 06:09:30;;;;;;;14.45;8.77;;;1.70;94.00;;;;;;5000991;28;20018;-55
2024/01/05 06:11:58;;;;;;;14.38;8.90;;;1.60;93.90;;;;;;5005786;28;20022;-51
2024/01/05 06:14:24;;;;;;;16.08;9.38;;;1.70;93.90;;;;;;5002525;28;20030;-56
2024/01/05 06:16:51;;;;;;;15.30;8.63;;;1.60;93.90;;;;;;5001957;28;20053;-54
2024/01/05 06:19:18;;;;;;;13.65;8.88;;;1.70;93.90;;;;;;4997793;28;20419;-50
2024/01/05 06:21:46;;;;;;;14.10;9.98;;;1.60;93.80;;;;;;4999284;28;20030;-52
2024/01/05 06:24:13;;;;;;;13.70;7.93;;;1.70;93.90;;;;;;5006568;28;20034;-52
2024/01/05 06:26:39;;;;;;;13.82;9.30;;;1.70;93.90;;;;;;5005873;28;20022;-52
2024/01/05 06:29:06;;;;;;;15.80;8.82;;;1.70;93.80;;;;;;5004115;28;20031;-50
2024/01/05 06:31:33;;;;;;;14.80;9.00;;;1.70;94.00;;;;;;5003571;28;20038;-54
2024/01/05 06:33:59;;;;;;;13.75;9.27;;;1.60;93.90;;;;;;4997310;28;20030;-51
2024/01/05 06:36:26;;;;;;;14.85;9.02;;;1.60;93.80;;;;;;4999443;28;20030;-55
2024/01/05 06:38:53;;;;;;;17.50;11.73;;;1.60;93.90;;;;;;5065328;28;20031;-53
2024/01/05 06:41:21;;;;;;;17.02;10.18;;;1.70;93.90;;;;;;5051313;28;20134;-54
2024/01/05 06:43:50;;;;;;;16.67;11.07;;;1.70;93.80;;;;;;5001070;28;20026;-51
2024/01/05 06:46:17;;;;;;;23.80;17.75;;;1.60;93.70;;;;;;5006387;28;20014;-53
2024/01/05 06:48:44;;;;;;;39.38;26.40;;;1.60;93.80;;;;;;5011964;28;20522;-50
2024/01/05 06:51:10;;;;;;;21.60;14.27;;;1.60;93.80;;;;;;5001251;28;20130;-52
2024/01/05 06:53:37;;;;;;;16.88;11.02;;;1.60;93.80;;;;;;5007880;28;20051;-51
2024/01/05 06:56:03;;;;;;;13.73;9.32;;;1.60;93.90;;;;;;5007486;28;20462;-51
2024/01/05 06:58:31;;;;;;;15.27;11.05;;;1.60;94.00;;;;;;5002348;28;20022;-52
2024/01/05 07:01:01;;;;;;;12.68;8.70;;;1.70;93.90;;;;;;4996267;28;20030;-52
2024/01/05 07:03:28;;;;;;;14.32;8.75;;;1.70;94.10;;;;;;4993125;28;20121;-55
2024/01/05 07:05:55;;;;;;;13.38;8.52;;;1.70;94.10;;;;;;4993327;28;20032;-51
2024/01/05 07:08:21;;;;;;;13.27;8.20;;;1.70;93.90;;;;;;4994432;28;20049;-54
2024/01/05 07:10:50;;;;;;;11.80;9.23;;;1.70;94.00;;;;;;4993490;28;20026;-50
2024/01/05 07:13:17;;;;;;;14.88;9.68;;;1.80;94.20;;;;;;4999116;28;20113;-50
2024/01/05 07:15:44;;;;;;;28.60;17.35;;;1.70;93.90;;;;;;5002879;28;20026;-52
2024/01/05 07:18:11;;;;;;;16.92;12.40;;;1.70;94.00;;;;;;5002978;28;20050;-49
2024/01/05 07:20:38;;;;;;;14.85;8.95;;;1.70;94.10;;;;;;5000644;28;20038;-51
2024/01/05 07:23:04;;;;;;;15.32;9.00;;;1.80;94.10;;;;;;4995605;28;20667;-48
2024/01/05 07:25:31;;;;;;;10.93;8.68;;;1.70;93.90;;;;;;4992697;28;20042;-52
2024/01/05 07:27:58;;;;;;;15.23;9.07;;;1.70;93.80;;;;;;4991411;28;20053;-54
2024/01/05 07:30:25;;;;;;;14.43;8.60;;;1.70;94.00;;;;;;4994316;28;20026;-51
2024/01/05 07:32:51;;;;;;;13.73;7.95;;;1.60;93.80;;;;;;4994888;28;20022;-52
2024/01/05 07:35:19;;;;;;;10.95;7.13;;;1.60;93.90;;;;;;4997090;28;20056;-54
2024/01/05 07:37:48;;;;;;;12.18;7.78;;;1.50;93.90;;;;;;4999927;28;20030;-51
2024/01/05 07:40:15;;;;;;;13.55;9.02;;;1.50;94.10;;;;;;4996618;28;20109;-52
2024/01/05 07:42:42;;;;;;;13.07;9.18;;;1.50;94.20;;;;;;4991679;28;20476;-51
2024/01/05 07:45:11;;;;;;;14.95;7.57;;;1.60;94.30;;;;;;4991408;28;20058;-51
2024/01/05 07:47:41;;;;;;;13.68;8.73;;;1.60;94.10;;;;;;4989874;28;20061;-50
2024/01/05 07:50:08;;;;;;;14.02;8.32;;;1.60;94.20;;;;;;4991523;28;20099;-51
2024/01/05 07:52:36;;;;;;;14.70;8.60;;;1.60;94.40;;;;;;4991190;28;20370;-51
2024/01/05 07:55:03;;;;;;;14.18;8.82;;;1.60;94.40;;;;;;4990674;28;20107;-50
2024/01/05 07:57:29;;;;;;;15.30;9.48;;;1.70;94.50;;;;;;4990991;28;20112;-51
2024/01/05 07:59:56;;;;;;;15.73;9.05;;;1.70;94.40;;;;;;4990746;28;20033;-52
2024/01/05 08:02:22;;;;;;;12.55;9.10;;;1.60;94.40;;;;;;4993087;28;20035;-54
2024/01/05 08:04:48;;;;;;;10.85;7.57;;;1.60;94.40;;;;;;4991272;28;20058;-54
2024/01/05 08:07:17;;;;;;;11.52;7.20;;;1.70;94.50;;;;;;4990198;28;20069;-51
2024/01/05 08:09:45;;;;;;;13.23;8.10;;;1.60;94.50;;;;;;4992877;28;20121;-52
2024/01/05 08:12:15;;;;;;;11.95;8.27;;;1.60;94.60;;;;;;5008494;28;20026;-50
2024/01/05 08:14:41;;;;;;;12.40;8.18;;;1.60;94.70;;;;;;4999847;28;20026;-48
2024/01/05 08:17:08;;;;;;;15.13;8.45;;;1.70;94.70;;;;;;5006629;28;20062;-50
2024/01/05 08:19:35;;;;;;;15.07;8.73;;;1.70;94.70;;;;;;4999029;28;20026;-49
2024/01/05 08:22:03;;;;;;;14.68;8.05;;;1.70;94.50;;;;;;5001724;28;20121;-50
2024/01/05 08:24:32;;;;;;;13.45;7.60;;;1.70;94.70;;;;;;5003731;28;20034;-52
2024/01/05 08:26:59;;;;;;;11.15;7.72;;;1.70;94.60;;;;;;5011982;28;20064;-49
2024/01/05 08:29:24;;;;;;;12.50;8.95;;;1.70;94.70;;;;;;5003269;28;20041;-53
2024/01/05 08:31:52;;;;;;;9.52;7.10;;;1.70;94.70;;;;;;5003221;28;20128;-50
2024/01/05 08:34:18;;;;;;;14.25;8.57;;;1.70;94.60;;;;;;4992334;28;20026;-51
2024/01/05 08:36:45;;;;;;;12.07;8.15;;;1.70;94.70;;;;;;4989048;28;20026;-47
2024/01/05 08:39:12;;;;;;;10.63;7.55;;;1.70;94.60;;;;;;4996252;28;20026;-52
2024/01/05 08:41:42;;;;;;;12.68;7.25;;;1.70;94.70;;;;;;4991652;28;20359;-48
2024/01/05 08:44:09;;;;;;;10.10;7.10;;;1.70;94.70;;;;;;4985379;28;20042;-47
2024/01/05 08:46:36;;;;;;;10.25;6.97;;;1.70;94.70;;;;;;4989432;28;20087;-47
2024/01/05 08:49:04;;;;;;;12.27;7.60;;;1.80;94.60;;;;;;4991159;28;20065;-47
2024/01/05 08:51:31;;;;;;;12.60;7.70;;;1.80;94.70;;;;;;4989432;28;20408;-46
2024/01/05 08:54:01;;;;;;;9.00;6.53;;;1.80;94.70;;;;;;4995656;28;20014;-50
2024/01/05 08:56:28;;;;;;;9.93;7.50;;;1.80;94.60;;;;;;4999277;28;20499;-47
2024/01/05 08:58:55;;;;;;;11.57;6.82;;;1.80;94.70;;;;;;4987961;28;20343;-49
2024/01/05 09:01:22;;;;;;;9.32;6.72;;;1.90;94.60;;;;;;4991210;28;20034;-48
2024/01/05 09:03:48;;;;;;;82.13;48.25;;;1.90;94.60;;;;;;5003924;28;20105;-46
2024/01/05 09:06:19;;;;;;;35.17;19.63;;;1.80;94.60;;;;;;5006417;28;20030;-49
2024/01/05 09:08:45;;;;;;;21.10;16.33;;;1.80;94.50;;;;;;5003485;28;20527;-47
2024/01/05 09:11:12;;;;;;;10.60;7.97;;;1.70;94.50;;;;;;5002512;28;20416;-46
2024/01/05 09:13:39;;;;;;;10.70;7.80;;;1.70;94.60;;;;;;4988428;28;20023;-50
2024/01/05 09:16:06;;;;;;;13.10;7.97;;;1.80;94.60;;;;;;4990764;28;20033;-49
2024/01/05 09:18:39;;;;;;;8.93;6.72;;;1.80;94.40;;;;;;4995613;28;20100;-49
2024/01/05 09:21:10;;;;;;;10.27;6.32;;;1.80;94.50;;;;;;4995045;28;20025;-50
2024/01/05 09:23:40;;;;;;;11.57;7.38;;;1.70;94.40;;;;;;4994547;28;20038;-46
2024/01/05 09:26:14;;;;;;;;;;;1.70;94.50;;;;;;4993750;28;20052;-47
2024/01/05 09:28:41;;;;;;;9.02;6.28;;;1.80;94.50;;;;;;4993322;28;20301;-46
2024/01/05 09:31:09;;;;;;;9.10;7.00;;;1.90;94.50;;;;;;4988131;28;20610;-46
2024/01/05 09:33:36;;;;;;;10.27;7.37;;;1.80;94.40;;;;;;4991829;28;20117;-50
2024/01/05 09:36:04;;;;;;;8.55;6.10;;;1.90;94.70;;;;;;4995959;28;20331;-53
2024/01/05 09:38:30;;;;;;;8.98;6.55;;;1.90;94.60;;;;;;5018982;28;20022;-51
2024/01/05 09:41:01;;;;;;;13.65;7.15;;;1.90;94.50;;;;;;4996390;28;20038;-52
2024/01/05 09:43:27;;;;;;;10.00;6.30;;;1.90;94.50;;;;;;4992703;28;20047;-54
2024/01/05 09:45:55;;;;;;;7.57;5.97;;;2.00;94.40;;;;;;4988567;28;20019;-49
2024/01/05 09:48:24;;;;;;;9.15;5.90;;;2.00;94.30;;;;;;4987860;28;20114;-52
2024/01/05 09:50:59;;;;;;;10.13;6.68;;;2.00;94.50;;;;;;4992135;28;20344;-54
2024/01/05 09:53:27;;;;;;;11.10;6.82;;;2.00;94.40;;;;;;5001518;28;20148;-50
2024/01/05 09:55:54;;;;;;;9.25;5.82;;;2.00;94.40;;;;;;4988418;28;20110;-54
2024/01/05 09:58:21;;;;;;;8.35;6.22;;;2.00;94.50;;;;;;4987634;28;20343;-48
2024/01/05 10:00:50;;;;;;;14.10;10.40;;;2.00;94.30;;;;;;4993402;28;20447;-50
2024/01/05 10:03:21;;;;;;;9.45;6.90;;;2.00;94.40;;;;;;4987728;28;20110;-51
2024/01/05 10:05:55;;;;;;;9.52;5.85;;;2.00;94.50;;;;;;4987829;28;20356;-48
2024/01/05 10:08:25;;;;;;;7.63;5.82;;;2.00;94.40;;;;;;4987934;28;20023;-47
2024/01/05 10:10:56;;;;;;;9.98;5.95;;;2.00;94.30;;;;;;4990774;28;20101;-48
2024/01/05 10:13:26;;;;;;;8.48;6.13;;;2.00;94.30;;;;;;4991771;28;20026;-49
2024/01/05 10:16:23;;;;;;;10.93;7.95;;;2.00;94.40;;;;;;4992169;28;20030;-54
2024/01/05 10:18:49;;;;;;;11.30;8.68;;;2.00;94.40;;;;;;4992234;28;20033;-53
2024/01/05 10:21:22;;;;;;;14.18;10.65;;;2.00;94.30;;;;;;4995001;28;20023;-51
2024/01/05 10:23:55;;;;;;;13.38;9.20;;;2.00;94.40;;;;;;4996854;28;20766;-52
2024/01/05 10:26:21;;;;;;;15.70;10.32;;;2.00;94.40;;;;;;4992638;28;20084;-54
2024/01/05 10:28:49;;;;;;;14.65;10.50;;;2.00;94.60;;;;;;4991625;28;20030;-51
2024/01/05 10:31:17;;;;;;;14.82;9.35;;;2.00;94.40;;;;;;4991373;28;20034;-51
2024/01/05 10:33:54;;;;;;;16.40;11.18;;;2.00;94.40;;;;;;4991789;28;20630;-47
2024/01/05 10:36:22;;;;;;;15.38;10.35;;;2.00;94.60;;;;;;4996790;28;20041;-47
2024/01/05 10:38:49;;;;;;;11.73;9.27;;;2.00;94.60;;;;;;5006294;28;20047;-48
2024/01/05 10:41:20;;;;;;;12.05;8.65;;;2.00;94.40;;;;;;4998029;28;20430;-47
2024/01/05 10:43:52;;;;;;;10.27;7.07;;;2.00;94.50;;;;;;4990702;28;20045;-49
2024/01/05 10:46:20;;;;;;;12.45;6.60;;;2.10;94.50;;;;;;4991923;28;20030;-48
2024/01/05 10:48:51;;;;;;;8.18;5.70;;;2.10;94.60;;;;;;4999094;28;20029;-47
2024/01/05 10:51:22;;;;;;;18.98;12.75;;;2.00;94.40;;;;;;4991530;28;20019;-48
2024/01/05 10:53:50;;;;;;;12.70;7.07;;;2.00;94.50;;;;;;4993002;28;20042;-47
2024/01/05 10:56:26;;;;;;;16.45;11.32;;;2.00;94.50;;;;;;4993696;28;20031;-47
2024/01/05 10:58:55;;;;;;;13.90;10.40;;;1.90;94.50;;;;;;4993870;28;20095;-46
2024/01/05 11:01:24;;;;;;;9.95;6.57;;;2.00;94.50;;;;;;4993394;28;20485;-48
2024/01/05 11:03:53;;;;;;;8.25;5.85;;;2.00;94.60;;;;;;4992115;28;20045;-48
2024/01/05 11:06:20;;;;;;;8.50;6.45;;;2.00;94.50;;;;;;4992552;28;20048;-47
2024/01/05 11:08:52;;;;;;;9.45;6.38;;;2.00;94.40;;;;;;5009952;28;20023;-46
2024/01/05 11:11:39;;;;;;;11.20;6.40;;;2.00;94.40;;;;;;4990656;28;20027;-45
2024/01/05 11:14:26;;;;;;;9.13;6.32;;;2.00;94.50;;;;;;4990851;28;20125;-45
2024/01/05 11:17:24;;;;;;;9.60;6.10;;;2.00;94.70;;;;;;4990833;28;20027;-48
2024/01/05 11:20:15;;;;;;;9.82;6.45;;;2.10;94.70;;;;;;4990894;28;20039;-47
2024/01/05 11:22:46;;;;;;;9.38;5.93;;;2.10;94.50;;;;;;4990003;28;20041;-45
2024/01/05 11:25:15;;;;;;;11.52;6.65;;;2.00;94.60;;;;;;4990355;28;20030;-53
2024/01/05 11:27:46;;;;;;;10.20;6.85;;;2.10;94.50;;;;;;4990846;28;20448;-47
2024/01/05 11:30:13;;;;;;;13.75;6.95;;;2.00;94.50;;;;;;4990774;28;20034;-49
2024/01/05 11:32:47;;;;;;;10.15;6.38;;;2.00;94.30;;;;;;4994614;28;20486;-45
2024/01/05 11:35:19;;;;;;;12.05;6.15;;;2.00;94.40;;;;;;4989430;28;20038;-49
2024/01/05 11:37:47;;;;;;;8.40;6.00;;;2.00;94.30;;;;;;5002818;28;20031;-47
2024/01/05 11:40:25;;;;;;;10.45;6.03;;;1.90;94.40;;;;;;4991240;28;20108;-51
2024/01/05 11:42:52;;;;;;;8.50;6.10;;;2.00;94.40;;;;;;4989370;28;20487;-45
2024/01/05 11:45:52;;;;;;;14.13;8.43;;;2.00;94.50;;;;;;4990093;28;20447;-46
2024/01/05 11:48:39;;;;;;;9.98;6.70;;;2.10;94.40;;;;;;4999419;28;20041;-44
2024/01/05 11:51:09;;;;;;;8.70;5.38;;;2.10;94.40;;;;;;5002351;28;20041;-46
2024/01/05 11:53:40;;;;;;;12.48;6.82;;;2.20;94.40;;;;;;4993221;28;20049;-48
2024/01/05 11:56:11;;;;;;;8.05;6.05;;;2.20;94.50;;;;;;5000145;28;20363;-50
2024/01/05 11:58:43;;;;;;;10.15;6.20;;;2.20;94.20;;;;;;5000247;28;20046;-53
2024/01/05 12:01:11;;;;;;;10.25;6.18;;;2.20;94.40;;;;;;4990230;28;20095;-54
2024/01/05 12:03:39;;;;;;;43.33;22.27;;;2.20;94.40;;;;;;4989381;28;20050;-49
2024/01/05 12:06:10;;;;;;;36.15;21.13;;;2.30;94.40;;;;;;4992003;28;20022;-50
2024/01/05 12:08:39;;;;;;;35.90;19.80;;;2.20;94.20;;;;;;4991476;28;20029;-52
2024/01/05 12:11:08;;;;;;;172.52;68.03;;;2.20;94.30;;;;;;4988981;28;20117;-50
2024/01/05 12:13:37;;;;;;;25.35;12.75;;;2.20;94.30;;;;;;4998810;28;20030;-51
2024/01/05 12:16:11;;;;;;;14.38;10.32;;;2.10;94.20;;;;;;4990431;28;20053;-51
2024/01/05 12:18:47;;;;;;;10.50;7.40;;;2.20;94.40;;;;;;4990901;28;20034;-55
2024/01/05 12:21:14;;;;;;;9.90;5.95;;;2.10;94.20;;;;;;4996949;28;20026;-55
2024/01/05 12:23:55;;;;;;;8.65;6.13;;;2.00;94.20;;;;;;4989526;28;20015;-50
2024/01/05 12:26:22;;;;;;;10.63;6.43;;;2.10;94.50;;;;;;4990091;28;20102;-53
2024/01/05 12:28:50;;;;;;;9.65;5.95;;;2.10;94.40;;;;;;4989805;28;20091;-49
2024/01/05 12:31:17;;;;;;;14.52;6.40;;;2.00;94.50;;;;;;4992668;28;20061;-53
2024/01/05 12:33:45;;;;;;;12.52;5.70;;;2.00;94.50;;;;;;4995716;28;20026;-50
2024/01/05 12:36:23;;;;;;;10.98;5.90;;;1.90;94.50;;;;;;4988706;28;20105;-53
2024/01/05 12:38:50;;;;;;;10.05;6.30;;;1.90;94.50;;;;;;5041434;28;20027;-53
2024/01/05 12:41:19;;;;;;;13.63;7.15;;;1.90;94.50;;;;;;4990985;28;20022;-51
2024/01/05 12:43:52;;;;;;;9.05;6.15;;;1.90;94.70;;;;;;4997402;28;20033;-54
2024/01/05 12:46:19;;;;;;;11.35;5.85;;;1.90;94.70;;;;;;4997070;28;21574;-51
2024/01/05 12:48:46;;;;;;;13.77;5.95;;;1.90;94.70;;;;;;4990323;28;20026;-51
2024/01/05 12:51:18;;;;;;;8.07;5.53;;;1.90;94.70;;;;;;4993170;28;20036;-52